Terminal Aerodrome Forecast
Issued by NWS Albuquerque, NM

Home | Current Version | Previous Version | Text Only | Print | Product List | Glossary On
Versions: 1 2 3 4 5 6 7 8 9 10 11 12 13 14 15 16 17 18
000
FTUS45 KABQ 101700
TAFABQ
TAF
KABQ 101732Z 1018/1118 21009KT P6SM FEW070 SCT110
     FM102200 22008KT P6SM VCTS BKN090CB
      TEMPO 1023/1101 VRB15G30KT 5SM -TSRA SCT050 BKN080CB
     FM110100 11011KT P6SM VCSH BKN100
     FM110500 08005KT P6SM BKN100
     FM111200 VRB06KT P6SM FEW100 BKN150=

USA.gov is the U.S. government's official web portal to all federal, state and local government web resources and services.